Time;durP1;ratioP1;P1;durP2;ratioP2;P2;SDS_P1;SDS_P2;PMS_P1;PMS_P2;Temp;Humidity;BMP_temperature;BMP_pressure;BME280_temperature;BME280_humidity;BME280_pressure;Samples;Min_cycle;Max_cycle;Signal;HPM_P1;HPM_P2
2022/02/10 00:03:06;;;;;;;0.60;0.32;;;;;;;;;;4446016;32;20049;-55
2022/02/10 00:15:56;;;;;;;0.95;0.30;;;;;;;;;;4431738;32;20091;-52
2022/02/10 00:21:20;;;;;;;1.98;0.30;;;;;;;;;;4437145;32;20042;-53
2022/02/10 00:35:03;;;;;;;1.55;0.43;;;;;;;;;;4446292;32;20104;-51
2022/02/10 00:37:50;;;;;;;;;;;;;;;;;;4442994;32;20065;-53
2022/02/10 00:40:20;;;;;;;1.75;0.50;;;;;;;;;;4440261;32;19953;-51
2022/02/10 00:42:49;;;;;;;1.90;0.50;;;;;;;;;;4441364;32;20474;-55
2022/02/10 00:45:17;;;;;;;0.55;0.30;;;;;;;;;;4448237;32;20038;-51
2022/02/10 00:47:55;;;;;;;1.37;0.25;;;;;;;;;;4447229;32;20364;-53
2022/02/10 00:50:26;;;;;;;1.10;0.30;;;;;;;;;;4446091;32;20049;-55
2022/02/10 00:53:06;;;;;;;0.85;0.25;;;;;;;;;;4446442;32;20052;-54
2022/02/10 00:55:37;;;;;;;2.40;0.55;;;;;;;;;;4433370;32;20053;-51
2022/02/10 00:58:09;;;;;;;1.90;0.40;;;;;;;;;;4434158;32;20105;-52
2022/02/10 01:30:25;;;;;;;0.40;0.30;;;;;;;;;;4440425;32;20041;-53
2022/02/10 01:32:57;;;;;;;1.00;0.30;;;;;;;;;;4449810;32;20437;-54
2022/02/10 01:35:26;;;;;;;2.03;0.40;;;;;;;;;;4444958;32;20062;-51
2022/02/10 01:37:55;;;;;;;1.45;0.50;;;;;;;;;;4438222;32;20090;-52
2022/02/10 02:04:51;;;;;;;0.93;0.22;;;;;;;;;;4428604;32;20364;-53
2022/02/10 02:07:27;;;;;;;0.93;0.50;;;;;;;;;;4444718;32;20094;-51
2022/02/10 02:09:56;;;;;;;1.30;0.40;;;;;;;;;;4439865;32;20037;-50
2022/02/10 02:12:24;;;;;;;0.77;0.37;;;;;;;;;;4440409;32;20057;-54
2022/02/10 02:14:52;;;;;;;0.70;0.30;;;;;;;;;;4432535;32;20164;-54
2022/02/10 02:17:21;;;;;;;0.85;0.30;;;;;;;;;;4436571;32;20429;-52
2022/02/10 02:19:49;;;;;;;1.62;0.40;;;;;;;;;;4448236;32;20046;-51
2022/02/10 02:22:19;;;;;;;2.12;0.47;;;;;;;;;;4433164;32;20026;-50
2022/02/10 02:24:49;;;;;;;1.77;0.40;;;;;;;;;;4443233;32;20049;-54
2022/02/10 02:27:18;;;;;;;0.80;0.37;;;;;;;;;;4445050;32;20088;-50
2022/02/10 02:29:56;;;;;;;0.30;0.30;;;;;;;;;;4425774;32;20092;-51
2022/02/10 02:32:34;;;;;;;1.00;0.30;;;;;;;;;;4435572;32;20085;-54
2022/02/10 03:05:28;;;;;;;0.65;0.20;;;;;;;;;;4443146;32;20083;-52
2022/02/10 03:07:59;;;;;;;1.00;0.30;;;;;;;;;;4436083;32;20134;-52
2022/02/10 03:10:56;;;;;;;0.55;0.20;;;;;;;;;;4435048;32;20177;-53
2022/02/10 03:13:27;;;;;;;0.17;0.15;;;;;;;;;;4430692;32;20035;-51
2022/02/10 03:22:23;;;;;;;1.08;0.20;;;;;;;;;;4438958;32;20094;-51
2022/02/10 04:09:14;;;;;;;1.02;0.20;;;;;;;;;;4432273;32;20409;-52
2022/02/10 04:14:41;;;;;;;0.65;0.25;;;;;;;;;;4408483;32;20045;-50
2022/02/10 04:22:31;;;;;;;0.70;0.25;;;;;;;;;;4436997;32;20046;-54
2022/02/10 04:25:28;;;;;;;0.77;0.30;;;;;;;;;;4430886;32;20037;-54
2022/02/10 05:04:13;;;;;;;1.75;0.30;;;;;;;;;;4433099;32;20087;-54
2022/02/10 05:18:25;;;;;;;1.95;0.30;;;;;;;;;;4433401;32;20462;-53
2022/02/10 05:34:16;;;;;;;0.25;0.20;;;;;;;;;;4427947;32;20064;-55
2022/02/10 05:36:46;;;;;;;0.62;0.30;;;;;;;;;;4451192;32;20441;-53
2022/02/10 05:39:22;;;;;;;2.90;0.30;;;;;;;;;;4444586;32;20116;-51
2022/02/10 05:44:50;;;;;;;0.70;0.30;;;;;;;;;;4438426;32;20082;-54
2022/02/10 05:58:03;;;;;;;1.27;0.40;;;;;;;;;;4448544;32;20126;-55
2022/02/10 07:08:33;;;;;;;1.15;0.25;;;;;;;;;;4433251;32;20210;-50
2022/02/10 07:16:48;;;;;;;1.27;0.40;;;;;;;;;;4440525;32;20109;-53
2022/02/10 08:55:37;;;;;;;2.55;0.70;;;;;;;;;;4438778;32;20053;-54
2022/02/10 09:09:23;;;;;;;3.37;0.62;;;;;;;;;;4432551;32;20050;-52
2022/02/10 09:19:17;;;;;;;2.03;0.52;;;;;;;;;;4441989;32;20172;-52
2022/02/10 09:22:35;;;;;;;2.40;0.57;;;;;;;;;;4447521;32;20034;-51
2022/02/10 10:02:56;;;;;;;1.65;0.32;;;;;;;;;;4443917;32;20484;-54
2022/02/10 10:10:44;;;;;;;1.23;0.30;;;;;;;;;;4441572;32;20086;-54
2022/02/10 10:13:38;;;;;;;3.20;0.60;;;;;;;;;;4431125;32;20093;-55
2022/02/10 10:16:37;;;;;;;1.52;0.50;;;;;;;;;;4436223;32;20030;-52
2022/02/10 10:21:49;;;;;;;1.55;0.40;;;;;;;;;;4433437;32;20043;-53
2022/02/10 10:57:27;;;;;;;4.82;0.50;;;;;;;;;;4426648;32;20115;-51
2022/02/10 11:45:28;;;;;;;3.10;0.50;;;;;;;;;;4441157;32;20048;-55
2022/02/10 12:36:59;;;;;;;1.45;0.62;;;;;;;;;;4431314;32;20055;-54
2022/02/10 12:42:52;;;;;;;;;;;;;;;;;;4433323;32;20106;-53
2022/02/10 13:02:59;;;;;;;2.92;0.60;;;;;;;;;;4436420;32;19977;-53
2022/02/10 13:23:18;;;;;;;3.47;0.60;;;;;;;;;;4431237;32;20065;-51
2022/02/10 13:49:22;;;;;;;1.10;0.40;;;;;;;;;;4434586;32;20042;-53
2022/02/10 14:16:16;;;;;;;11.93;1.98;;;;;;;;;;4432229;32;20386;-52
2022/02/10 14:18:53;;;;;;;13.93;2.03;;;;;;;;;;4432044;32;20045;-54
2022/02/10 14:21:30;;;;;;;9.15;1.42;;;;;;;;;;4425645;32;20109;-53
2022/02/10 14:26:34;;;;;;;13.10;1.70;;;;;;;;;;4445201;32;20094;-55
2022/02/10 14:29:02;;;;;;;14.68;1.87;;;;;;;;;;4434172;32;20097;-55
2022/02/10 14:31:31;;;;;;;15.18;2.35;;;;;;;;;;4425898;32;20023;-54
2022/02/10 14:33:59;;;;;;;11.32;2.05;;;;;;;;;;4437211;32;20046;-53
2022/02/10 14:36:32;;;;;;;16.52;1.95;;;;;;;;;;4439087;32;20096;-56
2022/02/10 14:39:21;;;;;;;18.80;2.55;;;;;;;;;;4439114;32;20026;-55
2022/02/10 14:42:34;;;;;;;11.95;2.05;;;;;;;;;;4439095;32;20075;-55
2022/02/10 15:16:25;;;;;;;;;;;;;;;;;;4454404;32;20046;-51
2022/02/10 15:29:42;;;;;;;21.15;3.20;;;;;;;;;;4454043;32;20050;-54
2022/02/10 16:17:28;;;;;;;25.35;4.82;;;;;;;;;;4433961;32;20029;-52
2022/02/10 16:20:05;;;;;;;24.42;4.40;;;;;;;;;;4436772;32;20028;-54
2022/02/10 16:22:48;;;;;;;35.80;4.50;;;;;;;;;;4437417;32;20037;-54
2022/02/10 16:25:18;;;;;;;21.20;3.80;;;;;;;;;;4434936;32;20038;-55
2022/02/10 16:27:50;;;;;;;29.92;4.53;;;;;;;;;;4450981;32;20072;-56
2022/02/10 16:30:20;;;;;;;41.08;4.53;;;;;;;;;;4436653;32;20042;-55
2022/02/10 16:32:54;;;;;;;;;;;;;;;;;;4435278;32;20085;-53
2022/02/10 16:35:29;;;;;;;34.15;3.83;;;;;;;;;;4436929;32;19945;-54
2022/02/10 16:38:02;;;;;;;30.88;4.28;;;;;;;;;;4437228;32;20046;-52
2022/02/10 16:40:32;;;;;;;40.22;4.60;;;;;;;;;;4434737;32;20437;-55
2022/02/10 16:43:06;;;;;;;36.60;4.12;;;;;;;;;;4437359;32;20044;-53
2022/02/10 16:45:39;;;;;;;25.75;4.22;;;;;;;;;;4437649;32;20050;-55
2022/02/10 16:48:12;;;;;;;37.08;4.50;;;;;;;;;;4437048;32;20201;-53
2022/02/10 16:50:47;;;;;;;31.55;3.78;;;;;;;;;;4421734;32;20079;-55
2022/02/10 16:53:24;;;;;;;36.80;4.45;;;;;;;;;;4421608;32;20075;-54
2022/02/10 16:56:06;;;;;;;30.35;3.90;;;;;;;;;;4429064;32;20382;-51
2022/02/10 17:01:35;;;;;;;36.38;4.68;;;;;;;;;;4440220;32;20094;-53
2022/02/10 17:05:00;;;;;;;30.65;4.43;;;;;;;;;;4439876;32;20046;-54
2022/02/10 17:18:50;;;;;;;21.80;3.60;;;;;;;;;;4438388;32;20061;-52
2022/02/10 17:25:05;;;;;;;22.70;3.20;;;;;;;;;;4445719;32;20078;-54
2022/02/10 17:27:29;;;;;;;23.05;3.25;;;;;;;;;;4434656;32;20046;-55
2022/02/10 17:33:11;;;;;;;22.62;3.28;;;;;;;;;;4440177;32;20102;-53
2022/02/10 17:46:39;;;;;;;21.42;2.95;;;;;;;;;;4439986;32;20038;-53
2022/02/10 17:54:24;;;;;;;19.20;2.80;;;;;;;;;;4437586;32;20038;-55
2022/02/10 17:56:52;;;;;;;18.37;3.17;;;;;;;;;;4437106;32;20057;-55
2022/02/10 17:59:21;;;;;;;15.73;2.70;;;;;;;;;;4439254;32;20042;-52
2022/02/10 18:01:50;;;;;;;19.17;2.87;;;;;;;;;;4436493;32;20050;-52
2022/02/10 18:04:19;;;;;;;16.02;2.30;;;;;;;;;;4436737;32;20147;-53
2022/02/10 18:06:53;;;;;;;15.00;2.67;;;;;;;;;;4424493;32;20052;-55
2022/02/10 18:12:50;;;;;;;16.17;2.42;;;;;;;;;;4423153;32;20088;-54
2022/02/10 18:14:55;;;;;;;14.57;2.58;;;;;;;;;;4422616;32;20075;-55
2022/02/10 18:17:45;;;;;;;15.82;2.65;;;;;;;;;;4421682;32;20043;-54
2022/02/10 18:20:22;;;;;;;17.02;2.70;;;;;;;;;;4439491;32;20449;-55
2022/02/10 18:25:44;;;;;;;11.95;2.60;;;;;;;;;;4437214;32;20045;-55
2022/02/10 18:34:48;;;;;;;8.85;2.20;;;;;;;;;;4436200;32;20057;-51
2022/02/10 19:07:34;;;;;;;9.27;1.83;;;;;;;;;;4453104;32;20046;-52
2022/02/10 19:10:04;;;;;;;6.18;1.73;;;;;;;;;;4446688;32;20090;-52
2022/02/10 19:12:42;;;;;;;10.27;1.80;;;;;;;;;;4436652;32;20079;-54
2022/02/10 19:15:21;;;;;;;11.05;1.70;;;;;;;;;;4433122;32;20060;-52
2022/02/10 19:17:51;;;;;;;10.43;1.58;;;;;;;;;;4435410;32;20056;-51
2022/02/10 19:20:20;;;;;;;7.22;1.62;;;;;;;;;;4439024;32;20057;-55
2022/02/10 19:22:49;;;;;;;9.95;1.70;;;;;;;;;;4436476;32;20056;-51
2022/02/10 19:25:18;;;;;;;9.30;1.98;;;;;;;;;;4438060;32;20038;-53
2022/02/10 19:27:48;;;;;;;8.55;1.55;;;;;;;;;;4438875;32;20045;-53
2022/02/10 19:30:18;;;;;;;10.32;1.70;;;;;;;;;;4435589;32;20049;-55
2022/02/10 19:32:52;;;;;;;12.48;2.35;;;;;;;;;;4429656;32;20094;-52
2022/02/10 19:35:23;;;;;;;8.52;1.70;;;;;;;;;;4439175;32;20120;-51
2022/02/10 19:37:56;;;;;;;8.77;1.70;;;;;;;;;;4438775;32;20037;-54
2022/02/10 19:40:26;;;;;;;5.93;1.33;;;;;;;;;;4438671;32;20037;-54
2022/02/10 19:42:56;;;;;;;8.48;1.87;;;;;;;;;;4435784;32;20035;-55
2022/02/10 19:45:24;;;;;;;7.22;1.30;;;;;;;;;;4438750;32;20085;-55
2022/02/10 19:47:53;;;;;;;5.43;1.27;;;;;;;;;;4435494;32;20037;-53
2022/02/10 19:50:27;;;;;;;8.30;1.45;;;;;;;;;;4435841;32;20052;-53
2022/02/10 19:52:59;;;;;;;7.60;1.70;;;;;;;;;;4436631;32;20042;-54
2022/02/10 19:55:29;;;;;;;7.30;1.40;;;;;;;;;;4418582;32;20034;-52
2022/02/10 19:58:11;;;;;;;8.60;1.37;;;;;;;;;;4423356;32;20034;-55
2022/02/10 20:00:44;;;;;;;4.10;1.12;;;;;;;;;;4426034;32;20041;-55
2022/02/10 20:03:18;;;;;;;2.55;1.05;;;;;;;;;;4438338;32;20377;-54
2022/02/10 20:05:50;;;;;;;5.12;1.17;;;;;;;;;;4438755;32;20072;-54
2022/02/10 20:08:20;;;;;;;3.53;1.00;;;;;;;;;;4438540;32;20038;-55
2022/02/10 20:10:53;;;;;;;4.37;1.30;;;;;;;;;;4421775;32;20465;-55
2022/02/10 20:13:23;;;;;;;5.05;1.20;;;;;;;;;;4421315;32;20026;-53
2022/02/10 20:15:51;;;;;;;4.18;1.15;;;;;;;;;;4423023;32;20109;-54
2022/02/10 20:18:19;;;;;;;5.82;1.20;;;;;;;;;;4419983;32;20059;-55
2022/02/10 20:20:55;;;;;;;3.92;1.05;;;;;;;;;;4442835;32;20361;-51
2022/02/10 20:23:24;;;;;;;5.45;1.10;;;;;;;;;;4450481;32;20105;-52
2022/02/10 20:26:11;;;;;;;4.68;0.93;;;;;;;;;;4436843;32;20038;-55
2022/02/10 20:28:40;;;;;;;3.45;0.93;;;;;;;;;;4435536;32;20428;-52
2022/02/10 20:31:09;;;;;;;4.65;1.00;;;;;;;;;;4438044;32;20068;-55
2022/02/10 20:33:38;;;;;;;4.85;0.93;;;;;;;;;;4437271;32;20417;-55
2022/02/10 20:36:07;;;;;;;3.85;0.77;;;;;;;;;;4436355;32;20030;-52
2022/02/10 20:38:39;;;;;;;3.53;0.60;;;;;;;;;;4447940;32;20037;-55
2022/02/10 20:41:12;;;;;;;5.47;0.88;;;;;;;;;;4453518;32;20058;-55
2022/02/10 20:43:42;;;;;;;5.03;0.85;;;;;;;;;;4453707;32;20118;-55
2022/02/10 20:46:14;;;;;;;4.43;0.62;;;;;;;;;;4452638;32;20458;-54
2022/02/10 20:48:43;;;;;;;3.87;0.90;;;;;;;;;;4442756;32;20072;-56
2022/02/10 20:51:13;;;;;;;4.72;0.90;;;;;;;;;;4438029;32;20041;-53
2022/02/10 20:53:43;;;;;;;3.75;1.08;;;;;;;;;;4437524;32;20041;-57
2022/02/10 20:56:12;;;;;;;4.72;0.98;;;;;;;;;;4440731;32;20120;-53
2022/02/10 20:58:42;;;;;;;7.70;1.00;;;;;;;;;;4438007;32;20319;-55
2022/02/10 21:01:13;;;;;;;7.47;0.95;;;;;;;;;;4439727;32;20034;-53
2022/02/10 21:03:43;;;;;;;4.70;1.20;;;;;;;;;;4441526;32;20338;-55
2022/02/10 21:09:09;;;;;;;6.65;1.10;;;;;;;;;;4436723;32;20068;-52
2022/02/10 21:11:37;;;;;;;5.97;0.90;;;;;;;;;;4440603;32;20105;-53
2022/02/10 21:14:17;;;;;;;6.28;1.00;;;;;;;;;;4434637;32;20049;-53
2022/02/10 21:16:45;;;;;;;4.78;0.90;;;;;;;;;;4443267;32;20049;-53
2022/02/10 21:19:17;;;;;;;5.93;0.90;;;;;;;;;;4448564;32;20048;-53
2022/02/10 21:21:45;;;;;;;3.85;1.12;;;;;;;;;;4452733;32;20045;-52
2022/02/10 21:24:20;;;;;;;4.68;0.93;;;;;;;;;;4437595;32;20077;-54
2022/02/10 21:27:24;;;;;;;3.12;0.88;;;;;;;;;;4436390;32;20346;-52
2022/02/10 21:29:56;;;;;;;4.28;0.85;;;;;;;;;;4437732;32;20057;-55
2022/02/10 21:32:26;;;;;;;2.20;0.90;;;;;;;;;;4429267;32;20106;-53
2022/02/10 21:35:24;;;;;;;6.32;1.00;;;;;;;;;;4443501;32;20468;-51
2022/02/10 21:37:58;;;;;;;6.62;1.15;;;;;;;;;;4444925;32;20134;-53
2022/02/10 21:41:24;;;;;;;;;;;;;;;;;;4441446;32;20053;-51
2022/02/10 21:54:38;;;;;;;2.90;0.60;;;;;;;;;;4437075;32;20042;-55
2022/02/10 22:00:40;;;;;;;4.90;0.90;;;;;;;;;;4422949;32;20087;-52
2022/02/10 22:18:58;;;;;;;;;;;;;;;;;;4435535;32;20084;-55
2022/02/10 22:21:37;;;;;;;4.07;0.95;;;;;;;;;;4439189;32;20269;-55
2022/02/10 22:24:12;;;;;;;4.18;0.80;;;;;;;;;;4440541;32;20037;-51
2022/02/10 22:26:42;;;;;;;5.93;1.00;;;;;;;;;;4441912;32;20419;-54
2022/02/10 22:34:34;;;;;;;6.35;1.05;;;;;;;;;;4434925;32;20052;-54
2022/02/10 22:37:05;;;;;;;6.87;1.48;;;;;;;;;;4438916;32;20030;-53
2022/02/10 22:39:38;;;;;;;6.95;1.33;;;;;;;;;;4437138;32;20043;-52
2022/02/10 22:42:07;;;;;;;4.80;0.90;;;;;;;;;;4433521;32;20060;-54
2022/02/10 22:44:36;;;;;;;8.32;1.33;;;;;;;;;;4439383;32;20080;-52
2022/02/10 22:47:04;;;;;;;7.37;1.58;;;;;;;;;;4436665;32;20041;-53
2022/02/10 22:49:33;;;;;;;6.32;1.15;;;;;;;;;;4445082;32;20338;-54
2022/02/10 22:52:01;;;;;;;5.60;1.17;;;;;;;;;;4432999;32;20102;-54
2022/02/10 22:54:30;;;;;;;3.95;1.02;;;;;;;;;;4434926;32;20112;-51
2022/02/10 22:56:59;;;;;;;4.87;1.35;;;;;;;;;;4438771;32;20037;-53
2022/02/10 22:59:27;;;;;;;9.07;1.70;;;;;;;;;;4432240;32;20054;-52
2022/02/10 23:01:56;;;;;;;13.45;1.83;;;;;;;;;;4436806;32;20107;-52
2022/02/10 23:04:25;;;;;;;10.05;1.48;;;;;;;;;;4441418;32;20518;-54
2022/02/10 23:06:57;;;;;;;9.77;1.75;;;;;;;;;;4438889;32;20428;-54
2022/02/10 23:09:26;;;;;;;8.10;1.52;;;;;;;;;;4440386;32;20026;-56
2022/02/10 23:11:55;;;;;;;11.50;1.70;;;;;;;;;;4439222;32;20085;-54
2022/02/10 23:14:25;;;;;;;6.82;1.65;;;;;;;;;;4443803;32;20081;-56
2022/02/10 23:16:53;;;;;;;14.23;1.80;;;;;;;;;;4432095;32;20084;-55
2022/02/10 23:19:22;;;;;;;11.88;1.80;;;;;;;;;;4445181;32;20414;-52
2022/02/10 23:21:50;;;;;;;9.07;2.00;;;;;;;;;;4440570;32;20049;-53
2022/02/10 23:24:19;;;;;;;8.50;2.10;;;;;;;;;;4436188;32;20038;-55
2022/02/10 23:26:47;;;;;;;11.70;1.85;;;;;;;;;;4439809;32;20117;-53
2022/02/10 23:29:15;;;;;;;14.10;2.05;;;;;;;;;;4444116;32;20050;-56
2022/02/10 23:31:44;;;;;;;11.07;2.10;;;;;;;;;;4439266;32;20053;-55
2022/02/10 23:34:12;;;;;;;10.52;1.70;;;;;;;;;;4427597;32;20061;-55
2022/02/10 23:36:47;;;;;;;9.52;1.77;;;;;;;;;;4444240;32;20418;-54
2022/02/10 23:39:25;;;;;;;10.90;1.65;;;;;;;;;;4447400;32;20054;-56
2022/02/10 23:42:04;;;;;;;10.63;2.08;;;;;;;;;;4436285;32;20049;-56
2022/02/10 23:44:40;;;;;;;10.20;1.95;;;;;;;;;;4429795;32;20065;-53
2022/02/10 23:47:09;;;;;;;12.25;1.90;;;;;;;;;;4438866;32;20072;-55
2022/02/10 23:49:39;;;;;;;10.57;1.77;;;;;;;;;;4449321;32;20053;-55
2022/02/10 23:52:09;;;;;;;11.52;2.10;;;;;;;;;;4435145;32;20038;-54
2022/02/10 23:54:39;;;;;;;9.30;2.20;;;;;;;;;;4429068;32;20045;-56
2022/02/10 23:57:23;;;;;;;12.85;2.22;;;;;;;;;;4439214;32;20368;-53
